• Join FlightAware (Why Join?)
  • Login
  • US Flag 
02:44AM EDT


 

Airport Tracker/Info


-or-


 

Live Flight TrackerFlight Track Log ✈ N88WF ✈ 23-Dec-2013 ✈ KJQF - KJQF

Flight Track Log - Related Links

Times and Time Zones

All times are in EST time to prevent confusion due to time zone crossing. See the N88WF flight status page for this flight to view local times or setup timezone preferences in your user account.

Time Position Orientation Groundspeed Altitude Reporting Facility
EST Latitude Longitude Course Direction KTS MPH feet Rate Location/Type
09:29AM 35.3728 -80.7122 137° Southeast 101 116 1,200  Level Atlanta Center
09:30AM 35.3511 -80.6878 137° Southeast 128 147 1,800 840 Climbing Atlanta Center
09:31AM 35.3231 -80.6533 135° Southeast 129 148 2,900 540 Climbing Atlanta Center
09:32AM 35.3325 -80.6147 73° East 191 220 3,000  Climbing Atlanta Center
09:33AM 35.3767 -80.6231 351° North 183 211 3,000  Level Atlanta Center
09:34AM 35.4208 -80.6442 339° North 171 197 3,000  Level Atlanta Center
09:35AM 35.4694 -80.6650 341° North 162 186 3,000 120 Level Atlanta Center
09:36AM 35.5097 -80.6814 342° North 134 154 3,400 420 Climbing Atlanta Center
09:37AM 35.5411 -80.6928 344° North 128 147 3,900 300 Climbing Atlanta Center
09:38AM 35.5581 -80.7022 336° Northwest 133 153 3,900  Level Atlanta Center
09:38AM 35.5792 -80.7092 345° North 153 176 3,900  Level Atlanta Center
09:39AM 35.6025 -80.7183 342° North 180 207 3,900 60 Level Atlanta Center
09:40AM 35.6486 -80.7344 344° North 180 207 4,000 300 Climbing Atlanta Center
09:41AM 35.6908 -80.7506 343° North 168 193 4,500 420 Climbing Atlanta Center
09:42AM 35.7331 -80.7667 343° North 168 193 4,900 240 Climbing Atlanta Center
09:43AM 35.7608 -80.7964 319° Northwest 150 173 5,000  Climbing Atlanta Center
09:44AM 35.7681 -80.8319 284° West 116 133 5,000  Level Atlanta Center
09:45AM 35.7958 -80.8564 324° Northwest 116 133 5,000  Level Atlanta Center
09:46AM 35.8319 -80.8756 337° Northwest 123 142 5,000 -120 Level Atlanta Center
09:47AM 35.8639 -80.9025 326° Northwest 134 154 4,800 -420 Descending Atlanta Center
09:48AM 35.8919 -80.9397 313° West 134 154 4,200 -600 Descending Atlanta Center
09:49AM 35.9200 -80.9797 311° West 147 169 3,600 -300 Descending Atlanta Center
09:50AM 35.9336 -81.0178 294° West 147 169 3,600  Level Atlanta Center
09:51AM 35.9283 -81.0589 261° West 127 146 3,600  Level Atlanta Center
09:52AM 35.9039 -81.0931 229° Southwest 128 147 3,600  Level Atlanta Center
09:53AM 35.8842 -81.1322 238° Southwest 134 154 3,600  Level Atlanta Center
09:54AM 35.8622 -81.1742 237° Southwest 146 168 3,600  Level Atlanta Center
09:55AM 35.8381 -81.2158 234° Southwest 151 174 3,600 60 Level Atlanta Center
09:55AM 35.8319 -81.2264 234° Southwest 151 174 3,700 120 Climbing Atlanta Center
09:56AM 35.8181 -81.2525 237° Southwest 147 169 3,700 -240 Level Atlanta Center
09:56AM 35.8139 -81.2578 226° Southwest 151 174 3,500 -480 Descending Atlanta Center
09:57AM 35.8042 -81.2811 243° Southwest 105 121 3,300 -540 Descending Atlanta Center
09:57AM 35.7981 -81.2889 226° Southwest 133 153 3,000 -660 Descending Atlanta Center
09:58AM 35.7839 -81.3125 234° Southwest 102 117 2,600 -600 Descending Atlanta Center
09:58AM 35.7800 -81.3178 228° Southwest 121 139 2,400 -600 Descending Atlanta Center
09:59AM 35.7681 -81.3439 241° Southwest 105 121 2,000 -540 Descending Atlanta Center
09:59AM 35.7639 -81.3464 206° Southwest 115 132 1,900 -540 Descending Atlanta Center
10:00AM 35.7517 -81.3672 234° Southwest 95 109 1,500 -420 Descending Atlanta Center
10:00AM 35.7497 -81.3750 253° West 109 125 1,500 960 Level Atlanta Center
10:01AM 35.7483 -81.3981 266° West 111 128 2,600 1,200 Climbing Atlanta Center
10:01AM 35.7503 -81.4006 314° West 96 110 2,700 960 Climbing Atlanta Center
10:02AM 35.7781 -81.4203 330° Northwest 118 136 3,600 900 Climbing Atlanta Center
10:02AM 35.7800 -81.4175 49° Northeast 77 89 3,600 480 Level Atlanta Center
10:03AM 35.8117 -81.4369 334° Northwest 130 150 4,100 480 Climbing Atlanta Center
10:03AM 35.8117 -81.4369 334° Northwest 101 116 4,100 240 Level Atlanta Center
10:04AM 35.8514 -81.4461 349° North 152 175 4,400 360 Climbing Atlanta Center
10:04AM 35.8536 -81.4486 318° Northwest 158 182 4,500 600 Climbing Atlanta Center
10:05AM 35.8631 -81.3994 77° East 104 120 5,000 480 Climbing Atlanta Center
10:05AM 35.8628 -81.3944 94° East 152 175 5,000 60 Level Atlanta Center
10:06AM 35.8661 -81.3456 85° East 110 127 5,100 60 Climbing Atlanta Center
10:06AM 35.8661 -81.3483 270° West 160 184 5,100  Level Atlanta Center
10:07AM 35.8669 -81.2919 89° East 137 158 5,100  Level Atlanta Center
10:07AM 35.8647 -81.2894 138° Southeast 164 189 5,100  Level Atlanta Center
10:08AM 35.8678 -81.2381 86° East 151 174 5,100  Level Atlanta Center
10:08AM 35.8697 -81.2353 49° Northeast 156 180 5,100  Level Atlanta Center
10:09AM 35.8858 -81.2039 58° Northeast 146 168 5,100  Level Atlanta Center
10:09AM 35.8942 -81.2089 334° Northwest 149 171 5,100  Level Atlanta Center
10:10AM 35.9214 -81.2156 349° North 109 125 5,100 -120 Level Atlanta Center
10:10AM 35.9219 -81.2361 272° West 125 144 5,000  Descending Atlanta Center
10:11AM 35.8969 -81.2422 191° South 50 58 5,100  Climbing Atlanta Center
10:11AM 35.8931 -81.2447 208° Southwest 124 143 5,000 -120 Descending Atlanta Center
10:12AM 35.8572 -81.2358 169° South 133 153 5,000 -240 Level Atlanta Center
10:13AM 35.8628 -81.2022 78° East 86 99 4,600 -540 Descending Atlanta Center
10:13AM 35.8603 -81.1819 99° East 185 213 4,400 -720 Descending Atlanta Center
10:14AM 35.8533 -81.1539 107° East 104 120 3,900 -780 Descending Atlanta Center
10:14AM 35.8658 -81.1508 11° North 153 176 3,700 -300 Descending Atlanta Center
10:15AM 35.8861 -81.1272 43° Northeast 109 125 3,600 -120 Descending Atlanta Center
10:15AM 35.8967 -81.1294 350° North 117 135 3,600  Level Atlanta Center
10:16AM 35.9136 -81.1414 330° Northwest 89 102 3,600  Level Atlanta Center
10:16AM 35.9097 -81.1622 257° West 119 137 3,600  Level Atlanta Center
10:17AM 35.8892 -81.1681 193° South 49 56 3,600  Level Atlanta Center
10:17AM 35.8786 -81.1708 192° South 137 158 3,600  Level Atlanta Center
10:18AM 35.8539 -81.1819 200° South 84 97 3,600  Level Atlanta Center
10:18AM 35.8503 -81.2000 256° West 138 159 3,600  Level Atlanta Center
10:19AM 35.8361 -81.2211 230° Southwest 114 131 3,600  Level Atlanta Center
10:19AM 35.8303 -81.2342 241° Southwest 133 153 3,600 -180 Level Atlanta Center
10:20AM 35.8100 -81.2681 234° Southwest 126 145 3,400 -420 Descending Atlanta Center
10:21AM 35.7961 -81.2917 234° Southwest 128 147 2,900 -540 Descending Atlanta Center
10:21AM 35.7900 -81.3022 234° Southwest 104 120 2,800 -600 Descending Atlanta Center
10:22AM 35.7778 -81.3231 234° Southwest 123 142 2,300 -660 Descending Atlanta Center
10:22AM 35.7758 -81.3281 244° Southwest 104 120 2,200 -540 Descending Atlanta Center
10:23AM 35.7639 -81.3492 235° Southwest 111 128 1,800 -480 Descending Atlanta Center
10:23AM 35.7600 -81.3569 238° Southwest 92 106 1,700 -540 Descending Atlanta Center
10:24AM 35.7497 -81.3725 231° Southwest 100 115 1,300 -600 Descending Atlanta Center
10:24AM 35.7458 -81.3778 228° Southwest 79 91 1,200 -120 Descending Atlanta Center
10:25AM 35.7358 -81.3986 239° Southwest 100 115 1,200  Level Atlanta Center
10:25AM 35.7417 -81.3856 61° Northeast 79 91 1,200 900 Level Atlanta Center
10:26AM 35.7278 -81.4117 237° Southwest 113 130 1,800 1,320 Climbing Atlanta Center
10:26AM 35.7217 -81.4247 240° Southwest 95 109 2,200 1,200 Climbing Atlanta Center
10:26AM 35.7283 -81.4397 299° West 116 133 2,800 1,080 Climbing Atlanta Center
10:27AM 35.7450 -81.4392 North 72 83 3,300 960 Climbing Atlanta Center
10:27AM 35.7614 -81.4283 28° Northeast 139 160 3,800 900 Climbing Atlanta Center
10:28AM 35.7758 -81.4153 36° Northeast 71 82 4,200 840 Climbing Atlanta Center
10:28AM 35.7942 -81.4044 26° Northeast 137 158 4,700 780 Climbing Atlanta Center
10:29AM 35.8106 -81.3911 33° Northeast 106 122 5,000 660 Climbing Atlanta Center
10:30AM 35.8272 -81.3803 28° Northeast 139 160 5,400 360 Climbing Atlanta Center
10:30AM 35.8436 -81.3669 33° Northeast 123 142 5,400  Level Atlanta Center
10:31AM 35.8661 -81.3533 26° Northeast 168 193 5,400  Level Atlanta Center
10:31AM 35.8867 -81.3347 36° Northeast 152 175 5,400  Level Atlanta Center
10:31AM 35.9053 -81.3239 25° Northeast 188 216 5,400 -240 Level Atlanta Center
10:32AM 35.9297 -81.3025 35° Northeast 165 190 5,200 -540 Descending Atlanta Center
10:32AM 35.9481 -81.2814 43° Northeast 190 219 4,900 -600 Descending Atlanta Center
10:33AM 35.9392 -81.2561 113° Southeast 147 169 4,600 -360 Descending Atlanta Center
10:34AM 35.9258 -81.2258 119° Southeast 146 168 4,500 -120 Descending Atlanta Center
10:34AM 35.9256 -81.2156 92° East 126 145 4,500  Level Atlanta Center
10:34AM 35.9167 -81.1900 113° Southeast 134 154 4,500  Level Atlanta Center
10:35AM 35.9100 -81.1700 112° Southeast 126 145 4,500  Level Atlanta Center
10:36AM 35.8947 -81.1369 120° Southeast 162 186 4,500 -120 Level Atlanta Center
10:36AM 35.8878 -81.1167 113° Southeast 143 165 4,400 -540 Descending Atlanta Center
10:37AM 35.8700 -81.0714 116° Southeast 196 226 4,000 -420 Descending Atlanta Center
10:37AM 35.8656 -81.0586 113° Southeast 166 191 4,000  Level Atlanta Center
10:38AM 35.8522 -81.0233 115° Southeast 192 221 4,000 -120 Level Atlanta Center
10:38AM 35.8456 -81.0031 112° Southeast 178 205 3,900 -120 Descending Atlanta Center
10:39AM 35.8297 -80.9600 114° Southeast 175 201 3,900  Level Atlanta Center
10:39AM 35.8253 -80.9475 114° Southeast 178 205 3,900  Level Atlanta Center
10:40AM 35.8119 -80.9094 113° Southeast 170 196 3,900  Level Atlanta Center
10:40AM 35.8053 -80.8944 119° Southeast 172 198 3,900  Level Atlanta Center
10:41AM 35.7917 -80.8567 114° Southeast 170 196 3,900  Level Atlanta Center
10:41AM 35.7850 -80.8414 118° Southeast 172 198 3,900  Level Atlanta Center
10:42AM 35.7717 -80.8061 115° Southeast 168 193 3,900  Level Atlanta Center
10:43AM 35.7536 -80.7531 113° Southeast 167 192 3,900  Level Atlanta Center
10:44AM 35.7236 -80.7289 147° Southeast 147 169 3,900  Level Atlanta Center
10:45AM 35.6750 -80.7025 156° South 139 160 3,900 -120 Level Atlanta Center
10:46AM 35.6456 -80.6911 163° South 141 162 3,700 -360 Descending Atlanta Center
10:47AM 35.6097 -80.6797 166° South 134 154 3,300 -420 Descending Atlanta Center
10:48AM 35.5739 -80.6711 169° South 130 150 2,900 -240 Descending Atlanta Center
10:49AM 35.5428 -80.6747 185° South 116 133 2,900  Level Atlanta Center
10:50AM 35.5056 -80.6867 195° South 120 138 2,900 -360 Level Atlanta Center
10:51AM 35.4725 -80.6931 189° South 131 151 2,200 -600 Descending Atlanta Center
10:52AM 35.4456 -80.6992 190° South 91 105 1,700 -420 Descending Atlanta Center
10:53AM 35.4247 -80.7050 193° South 78 90 1,400 -180 Descending Atlanta Center
10:54AM 35.4206 -80.7053 183° South 78 90 1,400  Level Atlanta Center
10:56AM 35.4206 -80.7053 158° South 78 90 1,400  Level Atlanta Center